WXM80 ListenWXM80 Stop

You find our weather info also at:

UK Metoffice

WeatherCloud

Weather Underground

Northeastern Weather Network

AWEKAS

Citizen Weather Observer Program (CWOP)

HAMweather, WeatherForYou, PWS Weather


Weather Underground History page Text

Daily Summary for August 20, 2016 Units:  English    Metric   Both
« Previous Day
Next Day »
Daily Weekly Monthly Yearly Custom
  High: Low: Average:
Temperature: 84.3 °F 70.6 °F 75.1 °F
Dew Point: 77.6 °F 68.8 °F 71.9 °F
Humidity: 97 % 77 % 90 %
Wind Speed: 6.6 mph 0.0 mph 0.9 mph
Wind Gust: 11.5 mph - -
Wind:- - ESE
Pressure: 29.92 in 29.86 in -
Precipitation: 0.06 in    
Historical Graphs
 
 
Tabular Data for August 20, 2016
Time Temperature Dew Point Pressure Wind Wind Speed Wind Gust Humidity Rainfall Rate (Hourly)
00:01 74.9 °F 72.1 °F 29.90 in West 1.1 mph 2.0 mph 91 % 0.00 in
00:06 74.9 °F 72.1 °F 29.90 in West 0.8 mph 2.3 mph 91 % 0.00 in
00:11 74.8 °F 72.0 °F 29.90 in Calm     91 % 0.00 in
00:16 74.7 °F 71.9 °F 29.90 in Calm     91 % 0.00 in
00:21 74.7 °F 71.9 °F 29.90 in West 0.5 mph 2.3 mph 91 % 0.00 in
00:26 74.6 °F 71.8 °F 29.91 in West 0.1 mph 1.2 mph 91 % 0.00 in
00:31 74.6 °F 71.8 °F 29.91 in Calm     91 % 0.00 in
00:36 74.5 °F 71.7 °F 29.91 in West 0.2 mph 1.2 mph 91 % 0.00 in
00:41 74.5 °F 71.7 °F 29.91 in Calm   1.2 mph 91 % 0.00 in
00:47 74.4 °F 71.6 °F 29.91 in Calm     91 % 0.00 in
00:52 74.3 °F 71.5 °F 29.91 in Calm     91 % 0.00 in
00:57 74.3 °F 71.8 °F 29.91 in Calm     92 % 0.00 in
01:02 74.2 °F 71.4 °F 29.91 in Calm     91 % 0.00 in
01:07 74.1 °F 71.3 °F 29.90 in Calm     91 % 0.00 in
01:12 74.0 °F 71.2 °F 29.91 in Calm     91 % 0.00 in
01:17 73.9 °F 71.1 °F 29.91 in Calm     91 % 0.00 in
01:22 73.8 °F 71.0 °F 29.91 in Calm     91 % 0.00 in
01:27 73.7 °F 70.9 °F 29.90 in Calm     91 % 0.00 in
01:32 73.6 °F 70.8 °F 29.91 in Calm     91 % 0.00 in
01:38 73.5 °F 70.7 °F 29.91 in Calm     91 % 0.00 in
01:43 73.4 °F 70.9 °F 29.90 in Calm     92 % 0.00 in
01:48 73.3 °F 70.8 °F 29.91 in Calm     92 % 0.00 in
01:53 73.3 °F 70.8 °F 29.90 in Calm     92 % 0.00 in
01:58 73.1 °F 70.6 °F 29.90 in Calm     92 % 0.00 in
02:03 73.1 °F 70.6 °F 29.90 in Calm     92 % 0.00 in
02:08 73.0 °F 70.5 °F 29.90 in Calm     92 % 0.00 in
02:13 72.9 °F 70.4 °F 29.90 in Calm     92 % 0.00 in
02:18 72.8 °F 70.3 °F 29.90 in Calm     92 % 0.00 in
02:23 72.7 °F 70.2 °F 29.91 in Calm     92 % 0.00 in
02:29 72.6 °F 70.1 °F 29.91 in Calm     92 % 0.00 in
02:34 72.5 °F 70.0 °F 29.91 in Calm     92 % 0.00 in
02:39 72.4 °F 69.9 °F 29.91 in Calm     92 % 0.00 in
02:44 72.4 °F 69.9 °F 29.91 in Calm     92 % 0.00 in
02:49 72.3 °F 70.2 °F 29.90 in Calm     93 % 0.00 in
02:54 72.2 °F 70.1 °F 29.90 in Calm     93 % 0.00 in
02:59 72.1 °F 70.0 °F 29.90 in Calm     93 % 0.00 in
03:04 72.0 °F 69.9 °F 29.90 in Calm     93 % 0.00 in
03:09 71.9 °F 69.8 °F 29.90 in Calm     93 % 0.00 in
03:14 71.8 °F 69.7 °F 29.90 in Calm     93 % 0.00 in
03:20 71.7 °F 69.6 °F 29.90 in Calm     93 % 0.00 in
03:25 71.7 °F 69.6 °F 29.90 in Calm     93 % 0.00 in
03:30 71.6 °F 69.5 °F 29.90 in Calm     93 % 0.00 in
03:35 71.5 °F 69.4 °F 29.90 in Calm     93 % 0.00 in
03:40 71.5 °F 69.7 °F 29.90 in Calm     94 % 0.00 in
03:45 71.4 °F 69.3 °F 29.90 in Calm     93 % 0.00 in
03:50 71.4 °F 69.6 °F 29.90 in Calm     94 % 0.00 in
03:55 71.3 °F 69.2 °F 29.90 in Calm     93 % 0.00 in
04:00 71.3 °F 69.2 °F 29.90 in Calm     93 % 0.00 in
04:05 71.3 °F 69.5 °F 29.90 in Calm     94 % 0.00 in
04:10 71.2 °F 69.4 °F 29.90 in Calm     94 % 0.00 in
04:16 71.2 °F 69.4 °F 29.90 in Calm     94 % 0.00 in
04:20 71.1 °F 69.3 °F 29.90 in Calm     94 % 0.00 in
04:26 71.1 °F 69.3 °F 29.90 in Calm     94 % 0.00 in
04:30 71.1 °F 69.3 °F 29.90 in Calm     94 % 0.00 in
04:35 71.1 °F 69.3 °F 29.90 in Calm     94 % 0.00 in
04:41 71.0 °F 69.2 °F 29.90 in Calm     94 % 0.00 in
04:46 71.0 °F 69.2 °F 29.90 in Calm     94 % 0.00 in
04:50 70.9 °F 69.1 °F 29.90 in Calm     94 % 0.00 in
04:56 70.8 °F 69.0 °F 29.90 in Calm     94 % 0.00 in
05:01 70.8 °F 69.0 °F 29.90 in Calm     94 % 0.00 in
05:06 70.8 °F 69.0 °F 29.90 in Calm     94 % 0.00 in
05:11 70.8 °F 69.0 °F 29.90 in Calm     94 % 0.00 in
05:16 70.7 °F 68.9 °F 29.90 in Calm     94 % 0.00 in
05:21 70.7 °F 69.2 °F 29.90 in Calm     95 % 0.00 in
05:26 70.7 °F 69.2 °F 29.90 in Calm     95 % 0.00 in
05:31 70.6 °F 69.1 °F 29.90 in Calm     95 % 0.00 in
05:36 70.7 °F 69.2 °F 29.90 in Calm     95 % 0.00 in
05:41 70.7 °F 69.2 °F 29.90 in Calm     95 % 0.00 in
05:52 70.8 °F 69.3 °F 29.90 in Calm     95 % 0.00 in
05:57 70.9 °F 69.7 °F 29.90 in West 0.3 mph 1.2 mph 96 % 0.00 in
06:02 71.0 °F 69.8 °F 29.90 in West 0.1 mph 1.2 mph 96 % 0.00 in
06:07 71.0 °F 69.8 °F 29.90 in Calm     96 % 0.00 in
06:12 71.2 °F 70.0 °F 29.91 in NNE 0.7 mph 3.5 mph 96 % 0.00 in
06:17 71.3 °F 70.1 °F 29.90 in Calm     96 % 0.00 in
06:22 71.3 °F 70.1 °F 29.91 in Calm     96 % 0.00 in
06:27 71.4 °F 70.2 °F 29.91 in Calm     96 % 0.00 in
06:32 71.4 °F 70.2 °F 29.91 in Calm     96 % 0.00 in
06:37 71.4 °F 70.2 °F 29.91 in Calm     96 % 0.00 in
06:43 71.4 °F 70.2 °F 29.91 in NNE 0.2 mph 1.2 mph 96 % 0.00 in
06:48 71.5 °F 70.3 °F 29.91 in Calm   1.2 mph 96 % 0.00 in
06:53 71.5 °F 70.3 °F 29.90 in Calm     96 % 0.00 in
06:58 71.6 °F 70.4 °F 29.91 in Calm     96 % 0.00 in
07:03 71.6 °F 70.4 °F 29.91 in Calm     96 % 0.00 in
07:08 71.8 °F 70.6 °F 29.90 in Calm     96 % 0.00 in
07:13 72.0 °F 71.1 °F 29.90 in NE 0.2 mph 3.5 mph 97 % 0.00 in
07:18 72.3 °F 71.4 °F 29.91 in Calm     97 % 0.00 in
07:23 72.6 °F 71.7 °F 29.91 in ENE 1.7 mph 3.5 mph 97 % 0.00 in
07:28 73.0 °F 72.1 °F 29.91 in ENE 0.2 mph 2.3 mph 97 % 0.00 in
07:34 73.3 °F 72.4 °F 29.91 in Calm   1.2 mph 97 % 0.00 in
07:39 73.6 °F 72.7 °F 29.91 in ENE 0.1 mph 1.2 mph 97 % 0.00 in
07:44 73.9 °F 73.0 °F 29.91 in ENE 0.3 mph 1.2 mph 97 % 0.00 in
07:49 74.0 °F 73.1 °F 29.91 in ENE 0.1 mph 1.2 mph 97 % 0.00 in
07:54 74.2 °F 73.3 °F 29.91 in ENE 0.4 mph 2.0 mph 97 % 0.00 in
07:59 74.3 °F 73.4 °F 29.91 in ENE 1.5 mph 3.5 mph 97 % 0.00 in
08:04 74.5 °F 73.3 °F 29.91 in NE 2.2 mph 3.5 mph 96 % 0.00 in
08:09 74.7 °F 73.5 °F 29.91 in NE 0.5 mph 1.2 mph 96 % 0.00 in
08:14 75.0 °F 73.8 °F 29.91 in ENE 0.2 mph 2.3 mph 96 % 0.00 in
08:19 75.2 °F 74.0 °F 29.91 in ENE 1.9 mph 4.0 mph 96 % 0.00 in
08:25 75.3 °F 73.8 °F 29.91 in NE 2.4 mph 3.5 mph 95 % 0.00 in
08:30 75.4 °F 73.9 °F 29.91 in ENE 0.1 mph 1.2 mph 95 % 0.00 in
08:35 75.6 °F 73.8 °F 29.91 in ENE 1.2 mph 3.5 mph 94 % 0.00 in
08:40 75.9 °F 74.4 °F 29.91 in ENE 0.4 mph 2.3 mph 95 % 0.00 in
08:45 76.1 °F 74.2 °F 29.91 in ENE 0.7 mph 2.3 mph 94 % 0.00 in
08:50 76.3 °F 74.4 °F 29.91 in NE 1.9 mph 3.5 mph 94 % 0.00 in
08:55 76.4 °F 74.5 °F 29.91 in NE 2.4 mph 5.8 mph 94 % 0.00 in
09:00 76.5 °F 74.3 °F 29.91 in ENE 2.6 mph 4.6 mph 93 % 0.00 in
09:05 76.6 °F 74.4 °F 29.91 in NE 2.5 mph 6.0 mph 93 % 0.00 in
09:10 76.7 °F 74.2 °F 29.91 in NE 0.9 mph 3.5 mph 92 % 0.00 in
09:15 76.9 °F 74.4 °F 29.91 in ENE 1.1 mph 3.5 mph 92 % 0.00 in
09:21 77.0 °F 74.5 °F 29.91 in ENE 1.0 mph 5.0 mph 92 % 0.00 in
09:26 77.1 °F 74.6 °F 29.91 in ENE 1.0 mph 5.0 mph 92 % 0.00 in
09:31 77.2 °F 74.4 °F 29.91 in ENE 1.0 mph 4.0 mph 91 % 0.00 in
09:36 77.4 °F 74.6 °F 29.91 in ENE 2.1 mph 4.0 mph 91 % 0.00 in
09:41 77.6 °F 74.8 °F 29.92 in NE 1.0 mph 4.0 mph 91 % 0.00 in
09:46 77.8 °F 75.0 °F 29.92 in NE 2.0 mph 8.0 mph 91 % 0.00 in
09:51 78.0 °F 74.8 °F 29.92 in ENE 1.0 mph 5.0 mph 90 % 0.00 in
09:56 78.2 °F 75.0 °F 29.92 in ENE 1.0 mph 3.0 mph 90 % 0.00 in
10:01 78.5 °F 75.7 °F 29.92 in ENE 0.3 mph 1.2 mph 91 % 0.00 in
10:06 79.0 °F 75.5 °F 29.92 in ENE 2.0 mph 7.0 mph 89 % 0.00 in
10:11 79.4 °F 75.9 °F 29.92 in NNE 1.0 mph 6.0 mph 89 % 0.00 in
10:16 79.6 °F 75.7 °F 29.92 in NNE 1.5 mph 3.5 mph 88 % 0.00 in
10:21 80.1 °F 76.2 °F 29.92 in NNE 2.7 mph 3.5 mph 88 % 0.00 in
10:26 80.5 °F 76.3 °F 29.92 in ENE 3.3 mph 5.0 mph 87 % 0.00 in
10:31 80.8 °F 76.2 °F 29.92 in NNE 2.9 mph 4.6 mph 86 % 0.00 in
10:36 81.2 °F 76.6 °F 29.92 in NE 1.1 mph 6.0 mph 86 % 0.00 in
10:41 81.7 °F 76.4 °F 29.91 in NNW 1.3 mph 3.5 mph 84 % 0.00 in
10:46 82.3 °F 77.0 °F 29.92 in North 2.4 mph 5.8 mph 84 % 0.00 in
10:51 82.9 °F 77.6 °F 29.92 in North 3.8 mph 5.0 mph 84 % 0.00 in
10:56 83.3 °F 77.6 °F 29.92 in NNE 3.7 mph 5.8 mph 83 % 0.00 in
11:01 84.0 °F 77.5 °F 29.92 in NE 2.6 mph 4.6 mph 81 % 0.00 in
11:07 84.3 °F 76.7 °F 29.92 in ENE 1.6 mph 8.1 mph 78 % 0.00 in
11:12 83.6 °F 76.0 °F 29.92 in NE 1.6 mph 3.5 mph 78 % 0.00 in
11:17 82.7 °F 75.9 °F 29.91 in ENE 1.1 mph 2.3 mph 80 % 0.00 in
11:22 81.6 °F 75.2 °F 29.91 in ENE 1.2 mph 3.5 mph 81 % 0.00 in
11:27 80.7 °F 75.1 °F 29.92 in ENE 1.5 mph 3.5 mph 83 % 0.00 in
11:32 80.0 °F 75.1 °F 29.92 in ENE 0.2 mph 1.2 mph 85 % 0.00 in
11:37 79.5 °F 74.6 °F 29.92 in ENE 0.9 mph 3.5 mph 85 % 0.00 in
11:42 79.1 °F 74.9 °F 29.92 in ENE 0.1 mph 1.2 mph 87 % 0.00 in
11:47 78.9 °F 74.7 °F 29.92 in ENE 0.8 mph 2.3 mph 87 % 0.00 in
11:52 78.6 °F 74.7 °F 29.92 in East 0.1 mph 1.2 mph 88 % 0.00 in
11:57 78.4 °F 72.4 °F 29.91 in East 0.5 mph 2.3 mph 82 % 0.00 in
12:03 78.1 °F 70.7 °F 29.92 in East 0.2 mph 1.2 mph 78 % 0.00 in
12:08 77.8 °F 70.4 °F 29.92 in SSE 3.5 mph 6.9 mph 78 % 0.00 in
12:13 76.8 °F 70.5 °F 29.92 in SSE 1.9 mph 3.5 mph 81 % 0.00 in
12:18 75.6 °F 70.4 °F 29.92 in SSE 2.4 mph 3.5 mph 84 % 0.01 in
12:23 74.9 °F 70.4 °F 29.92 in SE 0.9 mph 3.5 mph 86 % 0.01 in
12:28 74.6 °F 70.5 °F 29.92 in SE 1.9 mph 3.5 mph 87 % 0.01 in
12:33 74.0 °F 70.2 °F 29.92 in SE 1.7 mph 4.0 mph 88 % 0.01 in
12:38 73.5 °F 70.4 °F 29.92 in East 3.0 mph 8.1 mph 90 % 0.02 in
12:43 73.1 °F 70.0 °F 29.92 in SE 3.0 mph 6.9 mph 90 % 0.04 in
12:48 72.6 °F 69.5 °F 29.92 in SSE 6.1 mph 6.9 mph 90 % 0.05 in
12:54 72.1 °F 69.3 °F 29.92 in SSE 4.4 mph 6.9 mph 91 % 0.05 in
12:59 71.6 °F 69.2 °F 29.92 in SSE 2.7 mph 6.9 mph 92 % 0.06 in
13:04 71.3 °F 69.2 °F 29.92 in SE 6.0 mph 8.1 mph 93 % 0.06 in
13:09 71.0 °F 68.9 °F 29.92 in SSE 5.1 mph 11.5 mph 93 % 0.06 in
13:14 70.9 °F 68.8 °F 29.92 in SE 5.5 mph 8.1 mph 93 % 0.06 in
13:19 70.9 °F 68.8 °F 29.92 in SSE 1.3 mph 4.0 mph 93 % 0.05 in
13:24 70.9 °F 69.1 °F 29.92 in SE 5.2 mph 9.0 mph 94 % 0.05 in
13:34 71.1 °F 69.3 °F 29.91 in SE 3.3 mph 8.1 mph 94 % 0.05 in
13:39 71.2 °F 69.4 °F 29.92 in SE 3.6 mph 5.8 mph 94 % 0.03 in
13:45 71.3 °F 69.8 °F 29.91 in SE 2.2 mph 3.5 mph 95 % 0.02 in
13:50 71.5 °F 70.0 °F 29.92 in Calm   3.5 mph 95 % 0.01 in
13:55 71.7 °F 70.2 °F 29.91 in SE 3.1 mph 5.8 mph 95 % 0.00 in
14:00 71.6 °F 70.1 °F 29.91 in SSE 2.2 mph 4.6 mph 95 % 0.00 in
14:05 71.7 °F 70.2 °F 29.91 in SE 1.7 mph 4.6 mph 95 % 0.00 in
14:10 71.9 °F 70.4 °F 29.91 in SSE 3.8 mph 5.8 mph 95 % 0.00 in
14:15 72.1 °F 70.6 °F 29.91 in SSE 2.7 mph 4.6 mph 95 % 0.00 in
14:20 72.5 °F 71.3 °F 29.91 in SSE 3.2 mph 4.0 mph 96 % 0.00 in
14:25 72.8 °F 71.6 °F 29.91 in SE 0.1 mph 1.2 mph 96 % 0.00 in
14:30 73.1 °F 71.9 °F 29.91 in Calm   1.2 mph 96 % 0.00 in
14:36 73.4 °F 72.2 °F 29.91 in SSE 1.0 mph 4.0 mph 96 % 0.00 in
14:41 73.7 °F 72.5 °F 29.91 in Calm   1.2 mph 96 % 0.00 in
14:46 74.0 °F 72.7 °F 29.90 in SSE 2.0 mph 4.0 mph 96 % 0.00 in
14:51 74.2 °F 72.7 °F 29.90 in Calm   2.0 mph 95 % 0.00 in
14:56 74.6 °F 73.4 °F 29.91 in Calm   1.0 mph 96 % 0.00 in
15:01 75.0 °F 73.8 °F 29.91 in SW 1.4 mph 3.5 mph 96 % 0.00 in
15:06 75.4 °F 74.2 °F 29.90 in SW 1.0 mph 3.5 mph 96 % 0.00 in
15:11 75.8 °F 74.6 °F 29.90 in Calm   1.2 mph 96 % 0.00 in
15:16 76.1 °F 74.9 °F 29.90 in SW 0.2 mph 1.2 mph 96 % 0.00 in
15:21 76.5 °F 75.0 °F 29.90 in WSW 0.1 mph 1.2 mph 95 % 0.00 in
15:26 77.0 °F 74.8 °F 29.90 in SE 2.3 mph 4.0 mph 93 % 0.00 in
15:31 77.5 °F 75.3 °F 29.90 in Calm     93 % 0.00 in
15:36 78.0 °F 75.2 °F 29.90 in Calm     91 % 0.00 in
15:41 78.3 °F 75.5 °F 29.90 in Calm     91 % 0.00 in
15:47 78.5 °F 75.3 °F 29.90 in Calm   1.2 mph 90 % 0.00 in
15:52 78.6 °F 75.4 °F 29.90 in SE 0.3 mph 2.3 mph 90 % 0.00 in
15:57 78.7 °F 75.2 °F 29.90 in Calm   1.2 mph 89 % 0.00 in
16:02 78.7 °F 75.2 °F 29.89 in Calm   1.2 mph 89 % 0.00 in
16:07 78.8 °F 74.9 °F 29.89 in SE 0.2 mph 1.2 mph 88 % 0.00 in
16:12 78.8 °F 74.9 °F 29.90 in Calm     88 % 0.00 in
16:17 78.9 °F 75.0 °F 29.90 in Calm     88 % 0.00 in
16:22 78.9 °F 75.0 °F 29.89 in Calm     88 % 0.00 in
16:27 78.8 °F 74.9 °F 29.89 in Calm     88 % 0.00 in
16:32 78.8 °F 74.9 °F 29.89 in East 0.7 mph 2.3 mph 88 % 0.00 in
16:37 78.7 °F 74.8 °F 29.89 in NNE 0.2 mph 1.2 mph 88 % 0.00 in
16:42 78.6 °F 74.7 °F 29.89 in NNE 0.2 mph 2.3 mph 88 % 0.00 in
16:53 78.5 °F 74.6 °F 29.89 in Calm     88 % 0.00 in
16:58 78.5 °F 74.6 °F 29.88 in NNE 0.2 mph 1.2 mph 88 % 0.00 in
17:03 78.6 °F 75.1 °F 29.88 in NNE 0.2 mph 1.2 mph 89 % 0.00 in
17:08 78.7 °F 75.2 °F 29.88 in NNE 0.6 mph 1.2 mph 89 % 0.00 in
17:13 78.9 °F 75.0 °F 29.88 in SE 1.7 mph 3.5 mph 88 % 0.00 in
17:18 79.3 °F 75.1 °F 29.88 in SE 1.1 mph 3.5 mph 87 % 0.00 in
17:23 79.8 °F 74.5 °F 29.88 in ESE 3.9 mph 6.9 mph 84 % 0.00 in
17:28 80.2 °F 74.2 °F 29.87 in SE 0.1 mph 2.3 mph 82 % 0.00 in
17:33 80.6 °F 73.5 °F 29.87 in SE 3.9 mph 6.9 mph 79 % 0.00 in
17:39 80.8 °F 74.0 °F 29.86 in SSE 2.2 mph 4.6 mph 80 % 0.00 in
17:44 81.0 °F 73.9 °F 29.87 in SE 2.1 mph 4.6 mph 79 % 0.00 in
17:49 81.0 °F 73.9 °F 29.86 in SE 0.5 mph 4.6 mph 79 % 0.00 in
17:54 81.1 °F 73.2 °F 29.87 in SSE 4.0 mph 6.9 mph 77 % 0.00 in
17:59 81.1 °F 73.6 °F 29.87 in SE 2.6 mph 4.0 mph 78 % 0.00 in
18:04 81.0 °F 73.1 °F 29.87 in ESE 6.6 mph 10.4 mph 77 % 0.00 in
18:09 80.7 °F 73.2 °F 29.87 in SE 3.1 mph 5.8 mph 78 % 0.00 in
18:14 80.5 °F 73.0 °F 29.87 in SE 4.2 mph 8.1 mph 78 % 0.00 in
18:19 80.3 °F 73.2 °F 29.87 in SE 2.8 mph 10.4 mph 79 % 0.00 in
18:24 80.1 °F 73.0 °F 29.87 in SE 1.5 mph 3.5 mph 79 % 0.00 in
18:30 79.9 °F 73.2 °F 29.87 in SSE 1.6 mph 5.8 mph 80 % 0.00 in
18:35 79.8 °F 73.1 °F 29.87 in SE 0.4 mph 5.8 mph 80 % 0.00 in
18:40 79.6 °F 72.9 °F 29.87 in SSE 2.3 mph 4.6 mph 80 % 0.00 in
18:45 79.5 °F 72.8 °F 29.86 in ESE 3.0 mph 5.8 mph 80 % 0.00 in
18:50 79.4 °F 73.1 °F 29.87 in SE 1.1 mph 3.5 mph 81 % 0.00 in
18:55 79.4 °F 73.4 °F 29.87 in SE 2.3 mph 5.0 mph 82 % 0.00 in
19:00 79.3 °F 72.6 °F 29.87 in SSE 2.4 mph 4.6 mph 80 % 0.00 in
19:05 79.2 °F 72.1 °F 29.88 in SSE 3.6 mph 6.0 mph 79 % 0.00 in
19:10 79.0 °F 72.3 °F 29.88 in SE 0.6 mph 3.5 mph 80 % 0.00 in
19:16 78.9 °F 72.6 °F 29.88 in SE 3.0 mph 5.0 mph 81 % 0.00 in
19:21 78.7 °F 72.0 °F 29.88 in SE 1.0 mph 4.0 mph 80 % 0.00 in
19:26 78.5 °F 72.2 °F 29.88 in SE 2.0 mph 5.0 mph 81 % 0.00 in
19:31 78.3 °F 72.0 °F 29.88 in SE 0.2 mph 3.5 mph 81 % 0.00 in
19:36 78.2 °F 72.3 °F 29.88 in SE 1.0 mph 5.0 mph 82 % 0.00 in
19:41 78.0 °F 72.1 °F 29.88 in Calm   5.0 mph 82 % 0.00 in
19:46 77.9 °F 72.0 °F 29.88 in Calm   1.2 mph 82 % 0.00 in
19:51 77.8 °F 71.9 °F 29.89 in Calm   2.0 mph 82 % 0.00 in
19:56 77.6 °F 72.0 °F 29.89 in SE 1.0 mph 3.0 mph 83 % 0.00 in
20:01 77.4 °F 71.8 °F 29.89 in SE 1.2 mph 3.5 mph 83 % 0.00 in
20:11 77.0 °F 71.7 °F 29.89 in SE 2.0 mph 5.0 mph 84 % 0.00 in
20:16 76.7 °F 71.5 °F 29.89 in SE 1.0 mph 4.0 mph 84 % 0.00 in
20:21 76.6 °F 71.4 °F 29.89 in SE 1.0 mph 3.0 mph 84 % 0.00 in
20:31 76.3 °F 71.5 °F 29.89 in SE 1.6 mph 3.5 mph 85 % 0.00 in
20:36 76.2 °F 71.4 °F 29.90 in SE 1.0 mph 4.0 mph 85 % 0.00 in
20:41 76.1 °F 71.3 °F 29.90 in Calm   2.0 mph 85 % 0.00 in
20:46 76.0 °F 71.5 °F 29.90 in SSE 0.2 mph 2.0 mph 86 % 0.00 in
20:51 75.9 °F 71.4 °F 29.90 in Calm   1.0 mph 86 % 0.00 in
20:56 75.7 °F 71.2 °F 29.90 in Calm   1.0 mph 86 % 0.00 in
21:01 75.6 °F 71.1 °F 29.90 in Calm     86 % 0.00 in
21:06 75.5 °F 71.0 °F 29.90 in Calm   1.0 mph 86 % 0.00 in
21:11 75.3 °F 70.9 °F 29.91 in Calm   1.0 mph 86 % 0.00 in
21:16 75.2 °F 70.7 °F 29.90 in SSE 0.3 mph   86 % 0.00 in
21:21 75.1 °F 71.0 °F 29.91 in Calm   1.0 mph 87 % 0.00 in
21:26 74.9 °F 70.8 °F 29.91 in Calm     87 % 0.00 in
21:31 74.8 °F 70.7 °F 29.91 in Calm     87 % 0.00 in
21:36 74.7 °F 70.6 °F 29.91 in Calm     87 % 0.00 in
21:41 74.6 °F 70.8 °F 29.91 in Calm     88 % 0.00 in
21:46 74.4 °F 70.6 °F 29.91 in Calm     88 % 0.00 in
21:51 74.3 °F 70.5 °F 29.91 in Calm     88 % 0.00 in
21:56 74.2 °F 70.4 °F 29.91 in Calm     88 % 0.00 in
22:01 74.0 °F 70.6 °F 29.90 in Calm     89 % 0.00 in
22:06 73.9 °F 70.4 °F 29.90 in Calm   1.0 mph 89 % 0.00 in
22:11 73.7 °F 70.3 °F 29.90 in Calm     89 % 0.00 in
22:16 73.6 °F 70.2 °F 29.90 in Calm     89 % 0.00 in
22:21 73.4 °F 70.0 °F 29.90 in Calm     89 % 0.00 in
22:26 73.2 °F 70.1 °F 29.90 in Calm     90 % 0.00 in
22:31 73.1 °F 70.0 °F 29.90 in Calm     90 % 0.00 in
22:36 73.0 °F 69.9 °F 29.90 in Calm     90 % 0.00 in
22:41 72.9 °F 69.8 °F 29.90 in Calm     90 % 0.00 in
22:46 72.8 °F 70.0 °F 29.90 in Calm     91 % 0.00 in
22:51 72.6 °F 69.8 °F 29.90 in Calm     91 % 0.00 in
22:56 72.5 °F 69.7 °F 29.90 in Calm     91 % 0.00 in
23:01 72.3 °F 69.5 °F 29.90 in Calm     91 % 0.00 in
23:06 72.3 °F 69.5 °F 29.90 in Calm   1.0 mph 91 % 0.00 in
23:11 72.2 °F 69.4 °F 29.90 in Calm   1.0 mph 91 % 0.00 in
23:16 72.1 °F 69.3 °F 29.90 in Calm   1.2 mph 91 % 0.00 in
23:21 72.0 °F 69.2 °F 29.90 in Calm     91 % 0.00 in
23:26 71.9 °F 69.1 °F 29.90 in Calm     91 % 0.00 in
23:31 71.8 °F 69.0 °F 29.90 in Calm     91 % 0.00 in
23:36 71.7 °F 68.9 °F 29.90 in Calm     91 % 0.00 in
23:41 71.6 °F 69.2 °F 29.90 in Calm     92 % 0.00 in
23:46 71.5 °F 69.1 °F 29.90 in Calm     92 % 0.00 in
23:51 71.4 °F 69.0 °F 29.90 in Calm     92 % 0.00 in
23:56 71.4 °F 69.3 °F 29.90 in Calm     93 % 0.00 in
Crab Meadow Weather
Compliments of Weather Underground - 3 mb

Script developed by  Jim McMurry - jmcmurry@mwt.net Adapted for the template by  Wim van der Kuil - Leuven-Template.eu

Extremes: Currently the driest state is Nevada with an annual rainfall of only nine inches.